Bagley, Minnesota
Current Conditions -  °F | °C
As of 6:35 AM on Friday 21 Nov 2014 (Local Time) from KFSE Reporting Station
Overcast Overcast  
Wind Chill:   Ceiling: 8500
Heat Index: 16°   Visibility: 10mi
Dew Point: 10°   Wind: 16mph
Humidity: 79%   Direction: 170°S
Pressure: 29.89"   Gusts: NA
Location:  47.52°N, 95.4°W
Report Text: KFSE 211235Z AUTO 17014KT 10SM OVC085 M09/M12 A2989 RMK AO2
Loading
Personal Weather Stations






























Interactive Weather Map New forecast layout! Learn more

10-Day Weather Forecast

Advertisements
Track Severe Weather on mobile